Time;durP1;ratioP1;P1;durP2;ratioP2;P2;SDS_P1;SDS_P2;PMS_P1;PMS_P2;Temp;Humidity;BMP_temperature;BMP_pressure;BME280_temperature;BME280_humidity;BME280_pressure;Samples;Min_cycle;Max_cycle;Signal;HPM_P1;HPM_P2
2022/01/06 00:01:40;;;;;;;7.30;3.70;;;3.90;99.90;;;;;;5029366;28;20121;-73
2022/01/06 00:04:06;;;;;;;9.15;3.13;;;3.90;99.90;;;;;;5013460;28;20402;-74
2022/01/06 00:06:37;;;;;;;7.28;1.95;;;3.90;99.90;;;;;;5013571;28;20022;-74
2022/01/06 00:09:05;;;;;;;5.50;2.22;;;3.90;99.90;;;;;;5013434;28;20097;-73
2022/01/06 00:11:30;;;;;;;7.60;4.45;;;3.90;99.90;;;;;;5014747;28;20795;-75
2022/01/06 00:14:05;;;;;;;7.53;2.00;;;3.90;99.90;;;;;;5016793;28;20109;-73
2022/01/06 00:24:22;;;;;;;6.03;2.40;;;3.90;99.90;;;;;;5016850;28;20049;-73
2022/01/06 00:26:51;;;;;;;6.55;3.50;;;3.90;99.90;;;;;;5015588;28;20026;-73
2022/01/06 00:29:18;;;;;;;8.82;2.63;;;3.90;99.90;;;;;;5016977;28;20409;-73
2022/01/06 00:31:44;;;;;;;11.68;3.47;;;3.90;99.90;;;;;;5016860;28;20026;-73
2022/01/06 00:34:10;;;;;;;8.15;2.50;;;4.00;99.90;;;;;;5016146;28;20037;-73
2022/01/06 00:36:37;;;;;;;5.85;2.53;;;3.90;99.90;;;;;;5016771;28;20072;-73
2022/01/06 00:39:03;;;;;;;7.78;2.92;;;3.90;99.90;;;;;;5016725;28;20109;-75
2022/01/06 00:41:31;;;;;;;9.38;3.17;;;3.90;99.90;;;;;;5016064;28;20041;-73
2022/01/06 00:43:57;;;;;;;11.32;2.83;;;4.00;99.90;;;;;;5016056;28;20519;-73
2022/01/06 00:46:22;;;;;;;6.30;2.25;;;4.00;99.90;;;;;;5016796;28;20101;-72
2022/01/06 00:48:48;;;;;;;5.05;2.22;;;4.00;99.90;;;;;;5016805;28;20025;-72
2022/01/06 00:51:13;;;;;;;5.07;2.90;;;3.90;99.90;;;;;;5017209;28;20033;-72
2022/01/06 00:53:39;;;;;;;7.63;2.88;;;3.90;99.90;;;;;;5017634;28;20226;-74
2022/01/06 00:56:04;;;;;;;5.80;2.13;;;4.00;99.90;;;;;;5016737;28;20029;-73
2022/01/06 00:58:30;;;;;;;7.57;2.33;;;3.90;99.90;;;;;;5015902;28;20030;-73
2022/01/06 01:00:55;;;;;;;14.52;3.22;;;4.00;99.90;;;;;;5015502;28;20049;-73
2022/01/06 01:03:22;;;;;;;6.43;2.88;;;3.90;99.90;;;;;;5015820;28;20036;-73
2022/01/06 01:05:50;;;;;;;7.72;2.67;;;3.90;99.90;;;;;;5015930;28;20018;-73
2022/01/06 01:08:17;;;;;;;9.13;2.90;;;3.90;99.90;;;;;;5015431;28;20474;-73
2022/01/06 01:10:44;;;;;;;5.25;2.70;;;3.90;99.90;;;;;;5015881;28;20026;-73
2022/01/06 01:13:12;;;;;;;7.72;2.58;;;3.90;99.90;;;;;;5015229;28;20478;-73
2022/01/06 01:15:47;;;;;;;8.52;2.40;;;4.00;99.90;;;;;;5015882;28;20041;-73
2022/01/06 01:18:17;;;;;;;3.85;2.28;;;4.00;99.90;;;;;;5015164;28;20033;-73
2022/01/06 01:20:42;;;;;;;4.03;2.60;;;3.90;99.90;;;;;;5015814;28;20026;-73
2022/01/06 01:23:08;;;;;;;4.47;2.53;;;4.00;99.90;;;;;;5015818;28;20033;-73
2022/01/06 01:25:34;;;;;;;8.13;3.05;;;4.00;99.90;;;;;;5015193;28;20026;-73
2022/01/06 01:27:59;;;;;;;9.75;2.53;;;4.00;99.90;;;;;;5030709;28;20025;-72
2022/01/06 01:30:38;;;;;;;6.80;2.10;;;4.00;99.90;;;;;;5015635;28;20375;-74
2022/01/06 01:33:13;;;;;;;5.03;2.25;;;4.00;99.90;;;;;;5015010;28;20397;-74
2022/01/06 01:35:39;;;;;;;15.00;3.88;;;4.00;99.90;;;;;;5030402;28;20033;-72
2022/01/06 01:38:04;;;;;;;6.38;2.53;;;4.00;99.90;;;;;;5030228;28;20049;-72
2022/01/06 01:40:30;;;;;;;10.02;2.45;;;4.00;99.90;;;;;;5015126;28;20485;-73
2022/01/06 01:42:55;;;;;;;13.43;2.95;;;3.90;99.90;;;;;;5018555;28;20053;-72
2022/01/06 01:45:27;;;;;;;7.70;2.33;;;3.90;99.90;;;;;;5017933;28;20045;-72
2022/01/06 01:47:53;;;;;;;7.30;2.90;;;3.90;99.90;;;;;;5024676;28;20018;-72
2022/01/06 01:50:20;;;;;;;9.50;4.80;;;3.90;99.90;;;;;;5031544;28;20102;-73
2022/01/06 01:52:49;;;;;;;7.28;2.70;;;3.80;99.90;;;;;;5032100;28;20025;-74
2022/01/06 01:55:19;;;;;;;7.22;3.10;;;3.90;99.90;;;;;;5033348;28;20045;-72
2022/01/06 01:57:45;;;;;;;5.32;2.53;;;3.90;99.90;;;;;;5021436;28;20026;-72
2022/01/06 02:00:12;;;;;;;4.07;2.28;;;3.80;99.90;;;;;;5015731;28;20022;-72
2022/01/06 02:02:39;;;;;;;8.50;2.60;;;3.80;99.90;;;;;;5029746;28;20132;-73
2022/01/06 02:05:05;;;;;;;7.05;3.00;;;3.80;99.90;;;;;;5014143;28;20033;-73
2022/01/06 02:07:33;;;;;;;8.90;2.97;;;3.80;99.90;;;;;;5014251;28;20026;-73
2022/01/06 02:09:58;;;;;;;6.35;2.60;;;3.80;99.90;;;;;;5014170;28;20033;-73
2022/01/06 02:12:27;;;;;;;10.38;2.92;;;3.70;99.90;;;;;;5013964;28;20105;-72
2022/01/06 02:14:53;;;;;;;10.02;2.88;;;3.80;99.90;;;;;;5013961;28;20033;-73
2022/01/06 02:17:18;;;;;;;13.05;3.75;;;3.80;99.90;;;;;;5021989;28;20041;-72
2022/01/06 02:19:55;;;;;;;4.93;2.80;;;3.80;99.90;;;;;;5029354;28;20030;-74
2022/01/06 02:22:21;;;;;;;6.43;2.33;;;3.80;99.90;;;;;;5028932;28;20022;-73
2022/01/06 02:24:47;;;;;;;4.40;2.42;;;3.80;99.90;;;;;;5022631;28;20474;-73
2022/01/06 02:27:12;;;;;;;4.55;2.72;;;3.80;99.90;;;;;;5014290;28;20029;-72
2022/01/06 02:29:38;;;;;;;5.88;2.53;;;3.80;99.90;;;;;;5012863;28;20707;-73
2022/01/06 02:32:15;;;;;;;7.53;2.67;;;3.80;99.90;;;;;;5018575;28;20102;-73
2022/01/06 02:34:41;;;;;;;8.23;3.03;;;3.80;99.90;;;;;;5031140;28;20061;-72
2022/01/06 02:37:06;;;;;;;7.90;3.67;;;3.80;99.90;;;;;;5019154;28;20487;-74
2022/01/06 02:39:32;;;;;;;6.28;2.85;;;3.80;99.90;;;;;;5017576;28;20137;-72
2022/01/06 02:41:58;;;;;;;4.30;2.38;;;3.80;99.90;;;;;;5014767;28;20026;-73
2022/01/06 02:44:25;;;;;;;8.48;3.08;;;3.80;99.90;;;;;;5043890;23;20048;-77
2022/01/06 02:46:52;;;;;;;6.85;2.72;;;3.80;99.90;;;;;;5015856;28;20041;-77
2022/01/06 02:49:18;;;;;;;7.07;2.97;;;3.80;99.90;;;;;;5015196;28;20466;-76
2022/01/06 02:51:43;;;;;;;5.30;2.47;;;3.70;99.90;;;;;;5014527;28;20034;-76
2022/01/06 02:54:09;;;;;;;5.88;3.15;;;3.70;99.90;;;;;;5015186;28;20395;-77
2022/01/06 02:56:37;;;;;;;4.93;2.65;;;3.70;99.90;;;;;;5015708;28;20034;-77
2022/01/06 02:59:03;;;;;;;6.78;2.65;;;3.70;99.90;;;;;;5019826;28;20029;-76
2022/01/06 03:01:29;;;;;;;6.82;2.63;;;3.80;99.90;;;;;;5051576;28;20030;-76
2022/01/06 03:03:54;;;;;;;6.50;2.58;;;3.80;99.90;;;;;;5035217;28;20038;-75
2022/01/06 03:06:20;;;;;;;3.47;2.00;;;3.80;99.90;;;;;;5050551;28;20056;-75
2022/01/06 03:08:45;;;;;;;6.72;2.47;;;3.80;99.90;;;;;;5031120;28;20021;-77
2022/01/06 03:11:11;;;;;;;11.55;2.70;;;3.80;99.90;;;;;;5015012;28;20493;-78
2022/01/06 03:13:37;;;;;;;4.43;2.25;;;3.80;99.90;;;;;;5029751;28;20018;-78
2022/01/06 03:16:03;;;;;;;6.38;2.35;;;3.80;99.90;;;;;;5015542;28;20061;-77
2022/01/06 03:18:29;;;;;;;6.13;2.35;;;3.90;99.90;;;;;;5030553;28;20026;-78
2022/01/06 03:20:55;;;;;;;6.28;2.67;;;3.90;99.90;;;;;;5015211;28;20014;-78
2022/01/06 03:23:20;;;;;;;5.40;2.30;;;3.90;99.90;;;;;;5015172;28;20093;-76
2022/01/06 03:25:46;;;;;;;6.93;2.45;;;3.90;99.90;;;;;;5014985;28;20474;-77
2022/01/06 03:28:12;;;;;;;5.53;2.45;;;4.00;99.90;;;;;;5016121;28;20091;-78
2022/01/06 03:30:38;;;;;;;3.60;2.10;;;3.90;99.90;;;;;;5029216;28;20030;-77
2022/01/06 03:33:04;;;;;;;6.80;2.65;;;3.90;99.90;;;;;;5014004;28;20481;-78
2022/01/06 03:35:30;;;;;;;8.07;2.55;;;3.90;99.90;;;;;;5013309;28;20057;-77
2022/01/06 03:37:56;;;;;;;7.88;3.22;;;3.90;99.90;;;;;;5014045;28;20026;-76
2022/01/06 03:40:22;;;;;;;8.63;3.00;;;3.80;99.90;;;;;;5029061;28;20025;-76
2022/01/06 03:42:48;;;;;;;4.47;2.10;;;3.80;99.90;;;;;;5015166;28;20101;-77
2022/01/06 03:45:16;;;;;;;4.00;2.35;;;3.80;99.90;;;;;;5037628;28;20054;-77
2022/01/06 03:47:43;;;;;;;6.32;3.15;;;3.80;99.90;;;;;;5042838;28;20045;-77
2022/01/06 03:50:10;;;;;;;5.35;2.22;;;3.80;99.90;;;;;;5028497;28;20073;-77
2022/01/06 03:52:36;;;;;;;5.25;2.42;;;3.80;99.90;;;;;;5028577;28;20056;-77
2022/01/06 03:55:04;;;;;;;12.65;4.63;;;3.80;99.90;;;;;;5021756;28;20033;-78
2022/01/06 03:57:30;;;;;;;7.40;2.72;;;3.70;99.90;;;;;;5035146;28;20037;-77
2022/01/06 03:59:55;;;;;;;6.05;2.65;;;3.80;99.90;;;;;;5018650;28;20030;-77
2022/01/06 04:02:21;;;;;;;5.60;2.33;;;3.80;99.90;;;;;;5017735;28;20053;-77
2022/01/06 04:04:47;;;;;;;8.70;2.88;;;3.80;99.90;;;;;;5017786;28;20029;-77
2022/01/06 04:07:12;;;;;;;6.10;2.35;;;3.70;99.90;;;;;;5018298;28;20155;-78
2022/01/06 04:09:38;;;;;;;4.35;2.20;;;3.70;99.90;;;;;;5017748;28;20033;-76
2022/01/06 04:12:04;;;;;;;10.10;4.35;;;3.70;99.90;;;;;;5018183;28;20026;-77
2022/01/06 04:14:29;;;;;;;5.15;2.40;;;3.70;99.90;;;;;;5033202;28;20022;-77
2022/01/06 04:16:59;;;;;;;6.55;2.50;;;3.70;99.90;;;;;;5034106;28;20064;-76
2022/01/06 04:19:25;;;;;;;6.00;2.17;;;3.70;99.90;;;;;;5021474;28;20026;-76
2022/01/06 04:21:51;;;;;;;4.45;3.10;;;3.70;99.90;;;;;;5021792;28;20068;-77
2022/01/06 04:24:17;;;;;;;6.45;2.83;;;3.80;99.90;;;;;;5033010;28;20022;-77
2022/01/06 04:26:43;;;;;;;3.50;2.25;;;3.80;99.90;;;;;;5033865;28;20107;-78
2022/01/06 04:29:08;;;;;;;4.95;2.47;;;3.80;99.90;;;;;;5019019;28;20029;-77
2022/01/06 04:31:34;;;;;;;4.97;2.53;;;3.80;99.90;;;;;;5019190;28;20030;-78
2022/01/06 04:34:00;;;;;;;2.97;2.00;;;3.80;99.90;;;;;;5034524;28;20052;-78
2022/01/06 04:36:25;;;;;;;5.88;2.20;;;3.80;99.90;;;;;;5034127;28;20481;-77
2022/01/06 04:38:51;;;;;;;5.28;3.15;;;3.80;99.90;;;;;;5034936;28;20118;-77
2022/01/06 04:41:16;;;;;;;7.47;2.53;;;3.80;99.90;;;;;;5045640;28;20018;-77
2022/01/06 04:43:42;;;;;;;6.00;3.10;;;3.80;99.90;;;;;;5018645;28;20524;-77
2022/01/06 04:46:08;;;;;;;6.57;3.05;;;3.80;99.90;;;;;;5017338;28;20033;-77
2022/01/06 04:48:37;;;;;;;7.60;3.72;;;3.80;99.90;;;;;;5020469;28;20038;-76
2022/01/06 04:51:03;;;;;;;4.30;3.00;;;3.80;99.90;;;;;;5022385;28;20616;-77
2022/01/06 04:53:28;;;;;;;5.68;3.72;;;3.80;99.90;;;;;;5016648;28;20168;-76
2022/01/06 04:55:56;;;;;;;9.60;2.92;;;3.80;99.90;;;;;;5017487;28;20022;-77
2022/01/06 04:58:21;;;;;;;4.22;2.63;;;3.80;99.90;;;;;;5030811;28;20033;-76
2022/01/06 05:00:47;;;;;;;6.25;3.20;;;3.80;99.90;;;;;;5016236;28;20382;-77
2022/01/06 05:03:12;;;;;;;4.00;2.70;;;3.80;99.90;;;;;;5016101;28;20042;-78
2022/01/06 05:05:38;;;;;;;5.43;2.90;;;3.80;99.90;;;;;;5017330;28;20076;-77
2022/01/06 05:08:04;;;;;;;5.78;2.88;;;3.70;99.90;;;;;;5031634;28;20109;-76
2022/01/06 05:10:29;;;;;;;4.47;2.92;;;3.70;99.90;;;;;;5015982;28;20026;-76
2022/01/06 05:12:55;;;;;;;9.18;3.17;;;3.80;99.90;;;;;;5016403;28;20555;-76
2022/01/06 05:15:20;;;;;;;5.65;2.53;;;3.80;99.90;;;;;;5016163;28;20022;-76
2022/01/06 05:17:46;;;;;;;5.05;2.92;;;3.80;99.90;;;;;;5016549;28;20381;-76
2022/01/06 05:20:12;;;;;;;7.95;3.03;;;3.70;99.90;;;;;;5015942;28;20036;-77
2022/01/06 05:22:44;;;;;;;4.95;3.40;;;3.70;99.90;;;;;;5017022;28;20105;-78
2022/01/06 05:25:11;;;;;;;8.05;4.75;;;3.70;99.90;;;;;;5017218;28;20014;-76
2022/01/06 05:27:37;;;;;;;7.20;4.05;;;3.70;99.90;;;;;;5016322;28;20477;-77
2022/01/06 05:30:04;;;;;;;4.22;2.20;;;3.70;99.90;;;;;;5015944;28;20041;-77
2022/01/06 05:32:29;;;;;;;7.35;2.90;;;3.70;99.90;;;;;;5015561;28;20018;-77
2022/01/06 05:34:55;;;;;;;6.20;2.80;;;3.70;99.90;;;;;;5024234;28;20108;-77
2022/01/06 05:37:20;;;;;;;5.25;2.85;;;3.70;99.90;;;;;;5054099;28;20049;-77
2022/01/06 05:39:46;;;;;;;8.23;2.40;;;3.70;99.90;;;;;;5053191;28;20026;-76
2022/01/06 05:42:13;;;;;;;7.63;3.08;;;3.80;99.90;;;;;;5036759;28;20053;-77
2022/01/06 05:44:40;;;;;;;4.72;2.95;;;3.80;99.90;;;;;;5037489;28;20037;-75
2022/01/06 05:47:06;;;;;;;7.57;2.92;;;3.70;99.90;;;;;;5037907;28;20089;-76
2022/01/06 05:49:33;;;;;;;8.45;2.45;;;3.70;99.90;;;;;;5037270;28;20030;-76
2022/01/06 05:51:59;;;;;;;5.15;2.15;;;3.70;99.90;;;;;;5036017;28;20026;-76
2022/01/06 05:54:25;;;;;;;7.55;2.70;;;3.80;99.90;;;;;;5035739;28;20033;-76
2022/01/06 05:56:50;;;;;;;5.43;3.00;;;3.80;99.90;;;;;;5035976;28;20022;-77
2022/01/06 05:59:16;;;;;;;5.00;2.08;;;3.80;99.90;;;;;;5036304;28;20054;-75
2022/01/06 06:01:42;;;;;;;5.00;2.33;;;3.80;99.90;;;;;;5036033;28;20021;-75
2022/01/06 06:04:08;;;;;;;8.57;2.55;;;3.80;99.90;;;;;;5034336;28;20022;-76
2022/01/06 06:06:33;;;;;;;4.50;2.60;;;3.90;99.90;;;;;;5031722;28;20406;-76
2022/01/06 06:08:59;;;;;;;3.78;2.20;;;3.80;99.90;;;;;;5032057;28;20026;-76
2022/01/06 06:11:24;;;;;;;13.40;4.90;;;3.80;99.90;;;;;;5032133;28;20037;-77
2022/01/06 06:13:50;;;;;;;6.75;2.25;;;3.80;99.90;;;;;;5027341;28;20034;-77
2022/01/06 06:16:15;;;;;;;5.05;2.88;;;3.80;99.90;;;;;;5026739;28;20358;-76
2022/01/06 06:18:41;;;;;;;5.70;2.08;;;3.80;99.90;;;;;;5023752;28;20362;-76
2022/01/06 06:21:07;;;;;;;6.05;2.47;;;3.90;99.90;;;;;;5021646;28;20045;-76
2022/01/06 06:23:33;;;;;;;6.28;2.65;;;3.90;99.90;;;;;;5020716;28;20022;-76
2022/01/06 06:25:58;;;;;;;9.45;2.38;;;3.90;99.90;;;;;;5020090;28;20433;-76
2022/01/06 06:28:24;;;;;;;7.22;2.55;;;3.80;99.90;;;;;;5022349;28;20048;-77
2022/01/06 06:30:50;;;;;;;6.28;2.40;;;3.80;99.90;;;;;;5022028;28;20025;-76
2022/01/06 06:33:15;;;;;;;5.30;2.42;;;3.80;99.90;;;;;;5018245;28;20105;-76
2022/01/06 06:35:41;;;;;;;6.45;2.55;;;3.80;99.90;;;;;;5029250;28;20033;-76
2022/01/06 06:38:06;;;;;;;8.88;2.83;;;3.70;99.90;;;;;;5026654;28;20080;-75
2022/01/06 06:40:32;;;;;;;8.60;3.55;;;3.70;99.90;;;;;;5028546;28;20025;-75
2022/01/06 06:42:58;;;;;;;4.03;2.58;;;3.70;99.90;;;;;;5047933;28;20049;-76
2022/01/06 06:45:23;;;;;;;10.55;3.47;;;3.70;99.90;;;;;;5045152;28;20042;-75
2022/01/06 06:47:51;;;;;;;8.55;5.07;;;3.80;99.90;;;;;;5026991;28;20593;-76
2022/01/06 06:50:17;;;;;;;10.52;3.25;;;3.80;99.90;;;;;;5021009;28;20049;-76
2022/01/06 06:52:45;;;;;;;6.95;2.70;;;3.80;99.90;;;;;;5046488;28;20072;-76
2022/01/06 06:55:13;;;;;;;8.50;3.60;;;3.80;99.90;;;;;;5028390;28;20102;-75
2022/01/06 06:57:39;;;;;;;6.28;2.70;;;3.70;99.90;;;;;;5028892;28;20213;-76
2022/01/06 07:00:07;;;;;;;11.07;3.83;;;3.70;99.90;;;;;;5028803;28;20032;-76
2022/01/06 07:02:33;;;;;;;8.50;3.40;;;3.70;99.90;;;;;;5027948;28;20022;-75
2022/01/06 07:04:59;;;;;;;8.68;3.83;;;3.70;99.90;;;;;;5025360;28;20029;-77
2022/01/06 07:07:25;;;;;;;6.97;2.70;;;3.70;99.90;;;;;;5021578;28;20014;-77
2022/01/06 07:09:51;;;;;;;5.18;2.95;;;3.70;99.90;;;;;;5018498;28;20026;-77
2022/01/06 07:12:17;;;;;;;11.20;3.83;;;3.70;99.90;;;;;;5016865;28;20402;-77
2022/01/06 07:14:42;;;;;;;9.10;3.47;;;3.70;99.90;;;;;;5021632;28;20470;-77
2022/01/06 07:17:08;;;;;;;6.63;2.90;;;3.70;99.90;;;;;;5018983;28;20032;-76
2022/01/06 07:19:34;;;;;;;6.00;3.30;;;3.70;99.90;;;;;;5046412;28;20048;-76
2022/01/06 07:21:59;;;;;;;6.82;2.83;;;3.70;99.90;;;;;;5032423;28;20054;-77
2022/01/06 07:24:25;;;;;;;12.77;2.47;;;3.70;99.90;;;;;;5030751;28;20029;-77
2022/01/06 07:26:51;;;;;;;6.40;3.22;;;3.70;99.90;;;;;;5028118;28;20027;-77
2022/01/06 07:29:16;;;;;;;5.10;2.83;;;3.70;99.90;;;;;;5038180;28;20545;-77
2022/01/06 07:31:42;;;;;;;9.98;3.45;;;3.60;99.90;;;;;;5017899;28;20080;-78
2022/01/06 07:34:08;;;;;;;12.07;3.20;;;3.60;99.90;;;;;;5017424;28;20030;-78
2022/01/06 07:36:34;;;;;;;6.80;2.78;;;3.70;99.90;;;;;;5032623;28;20022;-77
2022/01/06 07:38:59;;;;;;;6.03;2.97;;;3.70;99.90;;;;;;5018267;28;20057;-77
2022/01/06 07:41:25;;;;;;;8.70;3.53;;;3.70;99.90;;;;;;5033833;28;20113;-77
2022/01/06 07:43:50;;;;;;;8.88;2.97;;;3.70;99.90;;;;;;5017938;28;20030;-77
2022/01/06 07:46:16;;;;;;;8.82;3.30;;;3.70;99.90;;;;;;5019539;28;20018;-77
2022/01/06 07:48:57;;;;;;;7.93;2.83;;;3.70;99.90;;;;;;5033883;28;20034;-78
2022/01/06 07:51:27;;;;;;;;;;;3.60;99.90;;;;;;5017689;28;20495;-77
2022/01/06 07:53:53;;;;;;;9.57;3.08;;;3.60;99.90;;;;;;5014911;28;19996;-77
2022/01/06 07:56:19;;;;;;;4.50;2.35;;;3.60;99.90;;;;;;5017826;28;20030;-77
2022/01/06 07:58:45;;;;;;;6.47;3.50;;;3.50;99.90;;;;;;5015492;28;20428;-77
2022/01/06 08:01:12;;;;;;;7.95;3.30;;;3.50;99.90;;;;;;5031850;28;20029;-77
2022/01/06 08:03:39;;;;;;;6.07;3.45;;;3.50;99.90;;;;;;5017843;28;20019;-77
2022/01/06 08:06:04;;;;;;;5.35;2.85;;;3.50;99.90;;;;;;5017959;28;20053;-77
2022/01/06 08:08:31;;;;;;;9.27;3.72;;;3.50;99.90;;;;;;5018524;28;20081;-77
2022/01/06 08:10:57;;;;;;;12.52;3.47;;;3.50;99.90;;;;;;5019908;28;20450;-77
2022/01/06 08:13:22;;;;;;;9.38;3.20;;;3.50;99.90;;;;;;5019252;28;20029;-78
2022/01/06 08:15:48;;;;;;;7.68;3.30;;;3.60;99.90;;;;;;5019534;28;20382;-76
2022/01/06 08:18:14;;;;;;;6.97;3.05;;;3.60;99.90;;;;;;5019650;28;20029;-76
2022/01/06 08:20:40;;;;;;;11.70;3.00;;;3.60;99.90;;;;;;5018787;28;20025;-77
2022/01/06 08:23:06;;;;;;;6.25;2.75;;;3.70;99.90;;;;;;5039035;28;20377;-76
2022/01/06 08:25:33;;;;;;;7.93;3.28;;;3.70;99.90;;;;;;5022541;28;20033;-76
2022/01/06 08:27:58;;;;;;;8.98;3.35;;;3.70;99.90;;;;;;5022152;28;20029;-78
2022/01/06 08:30:24;;;;;;;6.10;2.85;;;3.80;99.90;;;;;;5018372;28;20026;-77
2022/01/06 08:32:50;;;;;;;6.53;3.22;;;3.80;99.90;;;;;;5021286;28;20033;-77
2022/01/06 08:35:15;;;;;;;6.53;3.05;;;3.80;99.90;;;;;;5023382;28;20113;-77
2022/01/06 08:37:42;;;;;;;8.52;2.95;;;3.80;99.90;;;;;;5025426;28;20110;-78
2022/01/06 08:40:09;;;;;;;7.38;3.25;;;3.90;99.90;;;;;;5038480;28;20022;-77
2022/01/06 08:42:35;;;;;;;8.30;4.47;;;3.90;99.90;;;;;;5023928;28;20033;-78
2022/01/06 08:45:00;;;;;;;8.70;3.90;;;3.90;99.90;;;;;;5054981;23;20046;-72
2022/01/06 08:47:26;;;;;;;10.13;3.28;;;3.90;99.90;;;;;;5035480;28;20026;-73
2022/01/06 08:49:52;;;;;;;8.05;3.30;;;3.90;99.90;;;;;;5019702;28;20489;-72
2022/01/06 08:52:17;;;;;;;10.00;4.03;;;3.90;99.90;;;;;;5019977;28;20394;-74
2022/01/06 08:54:43;;;;;;;4.65;2.97;;;3.90;99.90;;;;;;5018724;28;20524;-73
2022/01/06 08:57:08;;;;;;;9.38;3.65;;;4.00;99.90;;;;;;5018076;28;20033;-72
2022/01/06 08:59:34;;;;;;;6.50;3.67;;;4.00;99.90;;;;;;5016280;28;20398;-73
2022/01/06 09:01:59;;;;;;;9.10;4.85;;;4.00;99.90;;;;;;5016251;28;20026;-72
2022/01/06 09:04:25;;;;;;;8.68;3.53;;;4.00;99.90;;;;;;5016275;28;20062;-72
2022/01/06 09:06:51;;;;;;;12.13;4.90;;;4.10;99.90;;;;;;5015241;28;20026;-74
2022/01/06 09:09:18;;;;;;;15.63;4.63;;;4.20;99.90;;;;;;5030435;28;20072;-74
2022/01/06 09:11:43;;;;;;;8.98;4.13;;;4.20;99.90;;;;;;5015497;28;20067;-73
2022/01/06 09:14:10;;;;;;;8.80;3.63;;;4.20;99.90;;;;;;5016575;28;20120;-73
2022/01/06 09:16:37;;;;;;;6.43;3.28;;;4.20;99.90;;;;;;5015876;28;20037;-73
2022/01/06 09:19:02;;;;;;;9.65;3.53;;;4.30;99.90;;;;;;5030697;28;20025;-73
2022/01/06 09:21:28;;;;;;;9.00;3.40;;;4.30;99.90;;;;;;5014880;28;20022;-73
2022/01/06 09:23:54;;;;;;;7.95;4.15;;;4.30;99.90;;;;;;5014803;28;20036;-73
2022/01/06 09:26:20;;;;;;;7.55;3.70;;;4.40;99.90;;;;;;5015059;28;20034;-71
2022/01/06 09:28:46;;;;;;;9.20;3.42;;;4.40;99.90;;;;;;5016195;28;20044;-74
2022/01/06 09:31:12;;;;;;;7.85;3.28;;;4.40;99.90;;;;;;5030603;28;20556;-73
2022/01/06 09:33:38;;;;;;;7.75;3.92;;;4.40;99.90;;;;;;5014677;28;20032;-73
2022/01/06 09:36:03;;;;;;;12.38;3.60;;;4.50;99.90;;;;;;5014981;28;20045;-73
2022/01/06 09:38:29;;;;;;;7.90;3.00;;;4.50;99.90;;;;;;5030073;28;20133;-73
2022/01/06 09:40:55;;;;;;;10.18;3.78;;;4.60;99.90;;;;;;5017090;28;20026;-74
2022/01/06 09:43:25;;;;;;;6.72;3.50;;;4.70;99.90;;;;;;5015497;28;20020;-73
2022/01/06 09:45:52;;;;;;;8.57;3.42;;;4.80;99.90;;;;;;5029963;28;20174;-74
2022/01/06 09:48:22;;;;;;;7.68;3.08;;;4.90;99.90;;;;;;5031108;28;20046;-73
2022/01/06 09:50:48;;;;;;;6.22;2.60;;;4.80;99.90;;;;;;5014736;28;20065;-74
2022/01/06 09:53:16;;;;;;;8.02;3.08;;;4.70;99.90;;;;;;5015436;28;20398;-74
2022/01/06 09:55:42;;;;;;;5.20;2.60;;;4.60;99.90;;;;;;5014801;28;20101;-73
2022/01/06 09:58:07;;;;;;;4.47;3.10;;;4.60;99.90;;;;;;5029905;28;20089;-74
2022/01/06 10:00:34;;;;;;;11.23;3.08;;;4.60;99.90;;;;;;5014717;28;20025;-72
2022/01/06 10:03:04;;;;;;;8.25;3.28;;;4.60;99.90;;;;;;5014633;28;20113;-74
2022/01/06 10:05:44;;;;;;;6.90;2.53;;;4.70;99.90;;;;;;5029434;28;20026;-74
2022/01/06 10:08:11;;;;;;;6.43;3.58;;;4.70;99.90;;;;;;5029750;28;20026;-74
2022/01/06 10:10:38;;;;;;;6.53;3.60;;;4.70;99.90;;;;;;5014401;28;20026;-73
2022/01/06 10:13:07;;;;;;;11.55;3.85;;;4.60;99.90;;;;;;5017184;28;20097;-74
2022/01/06 10:15:35;;;;;;;5.15;3.13;;;4.50;99.90;;;;;;5020913;28;20085;-73
2022/01/06 10:18:15;;;;;;;7.22;3.15;;;4.50;99.90;;;;;;5018118;28;20058;-73
2022/01/06 10:20:42;;;;;;;10.15;2.88;;;4.50;99.90;;;;;;5014358;28;20052;-74
2022/01/06 10:23:13;;;;;;;6.80;2.97;;;4.50;99.90;;;;;;5014306;28;20156;-75
2022/01/06 10:25:46;;;;;;;5.68;3.17;;;4.50;99.90;;;;;;5015205;28;20030;-73
2022/01/06 10:28:15;;;;;;;8.57;3.30;;;4.50;99.90;;;;;;5017840;28;20067;-75
2022/01/06 10:30:47;;;;;;;6.85;2.65;;;4.60;99.90;;;;;;5016847;28;20022;-73
2022/01/06 10:33:19;;;;;;;7.32;5.15;;;4.60;99.90;;;;;;5031686;28;20093;-74
2022/01/06 10:35:44;;;;;;;9.05;4.43;;;4.70;99.90;;;;;;5016252;28;20026;-75
2022/01/06 10:38:10;;;;;;;12.82;3.38;;;4.80;99.90;;;;;;5016192;28;20030;-75
2022/01/06 10:40:36;;;;;;;7.32;4.80;;;4.80;99.90;;;;;;5016202;28;20028;-74
2022/01/06 10:43:05;;;;;;;7.72;3.03;;;4.70;99.90;;;;;;5015509;28;20230;-75
2022/01/06 10:45:31;;;;;;;10.00;3.15;;;4.80;99.90;;;;;;5015872;28;20026;-74
2022/01/06 10:48:02;;;;;;;11.15;3.50;;;5.00;99.90;;;;;;5015682;28;20018;-75
2022/01/06 10:50:31;;;;;;;;;;;5.00;99.90;;;;;;5016013;28;20034;-74
2022/01/06 10:53:00;;;;;;;7.15;2.58;;;5.10;99.90;;;;;;5015220;28;19932;-73
2022/01/06 10:55:33;;;;;;;6.97;3.30;;;5.20;99.90;;;;;;5015037;28;20033;-75
2022/01/06 10:58:11;;;;;;;13.27;2.85;;;5.30;99.90;;;;;;5015783;28;20022;-74
2022/01/06 11:00:42;;;;;;;7.88;2.92;;;5.30;99.90;;;;;;5015640;28;20018;-76
2022/01/06 11:03:09;;;;;;;;;;;5.20;99.90;;;;;;5016411;28;20095;-75
2022/01/06 11:05:36;;;;;;;8.25;2.53;;;5.20;99.90;;;;;;5015593;28;19912;-73
2022/01/06 11:08:04;;;;;;;7.50;2.63;;;5.50;99.90;;;;;;5015747;28;20018;-75
2022/01/06 11:10:29;;;;;;;8.50;3.97;;;5.60;99.90;;;;;;5016171;28;20026;-75
2022/01/06 11:12:55;;;;;;;7.68;2.38;;;5.40;99.90;;;;;;5015983;28;20359;-75
2022/01/06 11:15:21;;;;;;;4.38;1.40;;;5.40;99.90;;;;;;5016078;28;20022;-74
2022/01/06 11:17:47;;;;;;;8.38;2.30;;;5.40;99.90;;;;;;5015485;28;20027;-75
2022/01/06 11:20:21;;;;;;;6.60;2.05;;;5.40;99.90;;;;;;5015623;28;20022;-75
2022/01/06 11:22:52;;;;;;;5.50;2.20;;;5.30;99.90;;;;;;5015832;28;20025;-75
2022/01/06 11:25:34;;;;;;;8.20;2.10;;;5.40;99.90;;;;;;5016075;28;20053;-73
2022/01/06 11:28:06;;;;;;;6.10;2.20;;;5.40;99.90;;;;;;5036154;28;20038;-75
2022/01/06 11:30:39;;;;;;;8.85;2.03;;;5.30;99.90;;;;;;5018174;28;20026;-75
2022/01/06 11:33:05;;;;;;;6.80;2.15;;;5.00;99.90;;;;;;5016104;28;20064;-75
2022/01/06 11:35:51;;;;;;;5.00;2.42;;;5.00;99.90;;;;;;5016211;28;20022;-73
2022/01/06 11:38:19;;;;;;;10.10;2.92;;;5.00;99.90;;;;;;5029560;28;20036;-74
2022/01/06 11:40:47;;;;;;;10.07;3.47;;;5.10;99.90;;;;;;5031818;28;20025;-75
2022/01/06 11:43:13;;;;;;;13.18;3.08;;;5.30;99.90;;;;;;5048010;28;20018;-74
2022/01/06 11:45:38;;;;;;;6.05;2.20;;;5.40;99.90;;;;;;5021449;28;20124;-75
2022/01/06 11:48:10;;;;;;;13.27;3.60;;;5.50;99.90;;;;;;5016014;28;20488;-75
2022/01/06 11:50:39;;;;;;;7.80;1.85;;;5.50;99.90;;;;;;5016464;28;20381;-74
2022/01/06 11:53:05;;;;;;;10.20;2.80;;;5.30;99.90;;;;;;5017407;28;20018;-75
2022/01/06 11:55:42;;;;;;;5.75;1.95;;;5.10;99.90;;;;;;5016045;28;20025;-74
2022/01/06 11:58:18;;;;;;;5.60;2.30;;;5.10;99.90;;;;;;5015666;28;20516;-76
2022/01/06 12:01:05;;;;;;;7.07;2.03;;;5.10;99.90;;;;;;5030877;28;20026;-75
2022/01/06 12:03:39;;;;;;;11.00;3.08;;;5.10;99.90;;;;;;5015771;28;20026;-74
2022/01/06 12:06:06;;;;;;;9.70;3.92;;;5.00;99.90;;;;;;5015223;28;20026;-76
2022/01/06 12:08:42;;;;;;;6.10;1.98;;;5.00;99.90;;;;;;5033600;28;20026;-74
2022/01/06 12:11:27;;;;;;;7.13;2.30;;;4.90;99.90;;;;;;5018688;28;20430;-76
2022/01/06 12:13:56;;;;;;;4.13;2.20;;;4.90;99.90;;;;;;5018854;28;20037;-75
2022/01/06 12:16:34;;;;;;;9.50;2.05;;;4.90;99.90;;;;;;5019017;28;20030;-75
2022/01/06 12:19:02;;;;;;;6.97;2.38;;;4.80;99.90;;;;;;5018880;28;20036;-74
2022/01/06 12:21:28;;;;;;;9.52;2.63;;;4.80;99.90;;;;;;5034607;28;20024;-74
2022/01/06 12:24:15;;;;;;;6.05;2.70;;;4.80;99.90;;;;;;5018857;28;20105;-74
2022/01/06 12:26:42;;;;;;;8.88;2.83;;;4.70;99.90;;;;;;5019427;28;20022;-75
2022/01/06 12:29:20;;;;;;;13.05;3.65;;;4.70;99.90;;;;;;5019638;28;20034;-74
2022/01/06 12:31:47;;;;;;;11.63;2.25;;;4.80;99.90;;;;;;5021552;28;20025;-75
2022/01/06 12:34:14;;;;;;;11.10;2.70;;;4.70;99.90;;;;;;5030675;28;20026;-76
2022/01/06 12:36:43;;;;;;;6.32;2.60;;;4.70;99.90;;;;;;5020173;28;20540;-75
2022/01/06 12:39:13;;;;;;;9.38;2.38;;;4.80;99.90;;;;;;5016762;28;20108;-75
2022/01/06 12:41:39;;;;;;;6.47;2.38;;;4.80;99.90;;;;;;5020261;28;20025;-74
2022/01/06 12:44:06;;;;;;;5.68;2.25;;;4.80;99.90;;;;;;5023675;28;20138;-74
2022/01/06 12:46:35;;;;;;;4.43;2.05;;;4.80;99.90;;;;;;5021066;28;20022;-74
2022/01/06 12:49:01;;;;;;;6.25;2.95;;;4.90;99.90;;;;;;5018903;28;20036;-74
2022/01/06 12:51:30;;;;;;;10.25;2.97;;;5.00;99.90;;;;;;5018565;28;20038;-74
2022/01/06 12:54:13;;;;;;;9.23;2.58;;;5.00;99.90;;;;;;5017159;28;20026;-73
2022/01/06 12:56:43;;;;;;;8.10;2.85;;;5.10;99.90;;;;;;5017805;28;20030;-73
2022/01/06 12:59:39;;;;;;;9.07;2.20;;;5.20;99.90;;;;;;5017776;28;20531;-72
2022/01/06 13:02:15;;;;;;;10.02;2.45;;;5.30;99.90;;;;;;5017474;28;20125;-74
2022/01/06 13:04:46;;;;;;;6.15;2.08;;;5.40;99.90;;;;;;5026264;28;20034;-73